EPMO

Modlin Airport

Warsaw, Poland
METAR EPMO 201600Z 28015KT CAVOK 29/12 Q1012
Observed Flight Rules
Aug-20 @ 16:00 UTC (23 minutes ago) Visual Flight Rules
Wind Visibility Clouds
280° at 15 knots 10,000+ meters
  • Clear skies
Temperatures Readings
Current 29°C / 84°F
Dewpoint 12°C / 54°F
Humidity 35%
Altimeter 29.88" Hg
Pressure 1012 hPa
Elevation 104
METAR EPMO 201600Z 28015KT CAVOK 29/12 Q1012
Observed Flight Rules
Aug-20 @ 16:00 UTC
(23 minutes ago)
VFR
Wind Visibility
280° at 15 knots 10,000+ meters
Clouds
  • Clear skies
Temperature Dewpoint
29°C / 84°F 12°C / 54°F
Humidity Altimeter Pressure
35% 29.88" Hg 1012 hPa